Time;durP1;ratioP1;P1;durP2;ratioP2;P2;SDS_P1;SDS_P2;PMS_P1;PMS_P2;Temp;Humidity;BMP_temperature;BMP_pressure;BME280_temperature;BME280_humidity;BME280_pressure;Samples;Min_cycle;Max_cycle;Signal;HPM_P1;HPM_P2
2022/10/04 00:02:14;;;;;;;5.43;3.70;;;13.90;99.90;;;;;;5024899;28;20863;-61
2022/10/04 00:04:44;;;;;;;5.95;3.95;;;13.90;99.90;;;;;;5037789;27;20070;-59
2022/10/04 00:07:12;;;;;;;6.90;3.70;;;13.90;99.90;;;;;;5065752;27;20137;-60
2022/10/04 00:09:48;;;;;;;6.38;3.78;;;13.90;99.90;;;;;;5029298;27;20025;-61
2022/10/04 00:12:37;;;;;;;7.55;4.32;;;13.90;99.90;;;;;;5070520;27;20112;-61
2022/10/04 00:15:06;;;;;;;8.15;3.72;;;13.90;99.90;;;;;;5038641;27;20064;-62
2022/10/04 00:17:34;;;;;;;5.97;3.85;;;13.90;99.90;;;;;;5065489;27;20029;-60
2022/10/04 00:20:03;;;;;;;6.25;3.90;;;13.90;99.90;;;;;;5029030;27;20025;-61
2022/10/04 00:22:31;;;;;;;5.80;3.80;;;13.90;99.90;;;;;;5074616;27;20108;-60
2022/10/04 00:25:00;;;;;;;6.43;3.63;;;13.90;99.90;;;;;;5028582;27;20053;-60
2022/10/04 00:27:27;;;;;;;7.40;3.70;;;13.90;99.90;;;;;;5078120;27;20022;-60
2022/10/04 00:30:01;;;;;;;7.85;3.55;;;14.00;99.90;;;;;;5028414;27;20021;-61
2022/10/04 00:32:28;;;;;;;6.55;3.58;;;14.00;99.90;;;;;;5077970;27;20108;-61
2022/10/04 00:34:55;;;;;;;5.40;3.40;;;14.00;99.90;;;;;;5021688;28;20754;-62
2022/10/04 00:37:24;;;;;;;5.90;3.47;;;13.90;99.90;;;;;;5082835;27;20472;-59
2022/10/04 00:40:10;;;;;;;6.78;3.58;;;13.90;99.90;;;;;;5021056;28;20025;-60
2022/10/04 00:42:58;;;;;;;8.98;3.88;;;13.80;99.90;;;;;;5064514;27;20038;-60
2022/10/04 00:45:40;;;;;;;5.10;3.28;;;13.80;99.90;;;;;;5116684;27;20015;-60
2022/10/04 00:48:34;;;;;;;6.45;3.28;;;13.80;99.90;;;;;;5065658;27;20046;-59
2022/10/04 00:51:06;;;;;;;5.50;3.05;;;13.70;99.90;;;;;;5117718;27;20022;-60
2022/10/04 00:53:34;;;;;;;5.88;3.28;;;13.70;99.90;;;;;;5060937;27;20027;-60
2022/10/04 00:56:04;;;;;;;5.57;3.20;;;13.70;99.90;;;;;;5116386;27;20021;-61
2022/10/04 00:58:36;;;;;;;5.45;3.42;;;13.60;99.90;;;;;;5066036;27;20015;-60
2022/10/04 01:01:03;;;;;;;6.97;3.65;;;13.60;99.90;;;;;;5111915;27;20045;-60
2022/10/04 01:03:37;;;;;;;6.05;3.40;;;13.60;99.90;;;;;;5077234;27;20037;-60
2022/10/04 01:06:06;;;;;;;6.85;3.70;;;13.70;99.90;;;;;;5026425;28;20610;-61
2022/10/04 01:08:45;;;;;;;7.50;3.40;;;13.70;99.90;;;;;;5074748;28;20110;-61
2022/10/04 01:11:25;;;;;;;5.47;3.28;;;13.70;99.90;;;;;;5024229;28;20034;-61
2022/10/04 01:14:03;;;;;;;6.38;3.83;;;13.70;99.90;;;;;;5076761;28;20492;-60
2022/10/04 01:16:32;;;;;;;5.10;3.33;;;13.70;99.90;;;;;;5026362;28;20033;-60
2022/10/04 01:19:27;;;;;;;8.57;3.67;;;13.70;99.90;;;;;;5078926;28;20041;-60
2022/10/04 01:22:13;;;;;;;6.13;3.75;;;13.70;99.90;;;;;;5027500;28;20834;-60
2022/10/04 01:24:41;;;;;;;6.22;3.40;;;13.70;99.90;;;;;;5064709;28;20204;-61
2022/10/04 01:27:36;;;;;;;6.03;3.50;;;13.70;99.90;;;;;;5116635;27;20525;-60
2022/10/04 01:30:07;;;;;;;5.35;3.60;;;13.70;99.90;;;;;;5074688;27;20023;-60
2022/10/04 01:32:34;;;;;;;9.30;4.15;;;13.70;99.90;;;;;;5109796;27;20679;-61
2022/10/04 01:34:59;;;;;;;7.10;3.92;;;13.70;99.90;;;;;;5073859;28;20030;-61
2022/10/04 01:37:25;;;;;;;6.65;3.92;;;13.70;99.90;;;;;;5115806;27;20486;-58
2022/10/04 01:39:51;;;;;;;5.45;3.97;;;13.70;99.90;;;;;;5065634;27;20061;-61
2022/10/04 01:42:19;;;;;;;5.50;3.67;;;13.70;99.90;;;;;;5116404;28;20107;-60
2022/10/04 01:45:01;;;;;;;4.40;3.97;;;13.60;99.90;;;;;;5075923;27;20025;-59
2022/10/04 01:47:47;;;;;;;4.97;4.03;;;13.60;99.90;;;;;;5029867;27;20764;-60
2022/10/04 01:51:05;;;;;;;8.10;4.38;;;13.60;99.90;;;;;;5072065;27;20031;-60
2022/10/04 01:53:41;;;;;;;4.57;4.07;;;13.50;99.90;;;;;;5040849;27;20031;-60
2022/10/04 01:56:12;;;;;;;6.10;4.45;;;13.50;99.90;;;;;;5054852;27;20066;-60
2022/10/04 01:58:48;;;;;;;6.55;4.00;;;13.50;99.90;;;;;;5046171;27;20027;-60
2022/10/04 02:01:29;;;;;;;5.53;4.00;;;13.40;99.90;;;;;;5076673;27;20027;-60
2022/10/04 02:03:58;;;;;;;7.07;4.10;;;13.50;99.90;;;;;;5098932;27;20109;-60
2022/10/04 02:06:24;;;;;;;6.88;4.70;;;13.50;99.90;;;;;;5092203;27;20027;-59
2022/10/04 02:08:56;;;;;;;7.60;4.20;;;13.50;99.90;;;;;;5109933;27;20197;-60
2022/10/04 02:11:23;;;;;;;7.18;4.72;;;13.50;99.90;;;;;;5084373;27;20670;-61
2022/10/04 02:13:52;;;;;;;6.32;4.57;;;13.50;99.90;;;;;;5100561;27;20357;-60
2022/10/04 02:16:20;;;;;;;7.72;4.68;;;13.40;99.90;;;;;;5076418;27;20029;-59
2022/10/04 02:18:46;;;;;;;6.28;4.85;;;13.50;99.90;;;;;;5030126;27;20592;-60
2022/10/04 02:21:13;;;;;;;7.25;5.05;;;13.40;99.90;;;;;;5080986;27;20076;-60
2022/10/04 02:23:40;;;;;;;5.82;4.65;;;13.50;99.90;;;;;;5029628;27;20071;-61
2022/10/04 02:26:07;;;;;;;7.00;4.78;;;13.50;99.90;;;;;;5076695;27;20014;-60
2022/10/04 02:28:33;;;;;;;7.68;4.70;;;13.40;99.90;;;;;;5023027;28;20037;-60
2022/10/04 02:33:47;;;;;;;6.88;4.38;;;13.30;99.90;;;;;;5022476;28;20041;-60
2022/10/04 02:36:13;;;;;;;8.10;4.80;;;13.30;99.90;;;;;;5060534;27;20023;-59
2022/10/04 02:39:21;;;;;;;8.13;4.97;;;13.30;99.90;;;;;;5127330;27;20099;-60
2022/10/04 02:41:54;;;;;;;5.72;4.68;;;13.20;99.90;;;;;;5067630;27;20031;-60
2022/10/04 02:44:34;;;;;;;7.82;5.05;;;13.20;99.90;;;;;;5119969;27;20052;-60
2022/10/04 02:47:12;;;;;;;6.93;5.13;;;13.20;99.90;;;;;;5079684;27;20029;-60
2022/10/04 02:49:40;;;;;;;8.32;4.70;;;13.10;99.90;;;;;;5029494;27;20666;-60
2022/10/04 02:52:17;;;;;;;7.30;4.88;;;13.10;99.90;;;;;;5080354;27;20503;-60
2022/10/04 02:55:04;;;;;;;9.18;5.00;;;13.00;99.90;;;;;;5028352;27;20102;-59
2022/10/04 02:57:32;;;;;;;7.40;5.10;;;13.00;99.90;;;;;;5080456;27;20067;-60
2022/10/04 03:00:14;;;;;;;8.65;5.28;;;13.00;99.90;;;;;;5029709;27;20052;-60
2022/10/04 03:02:41;;;;;;;8.50;5.10;;;13.00;99.90;;;;;;5044050;27;20637;-60
2022/10/04 03:05:12;;;;;;;7.78;5.40;;;13.00;99.90;;;;;;5028733;27;20356;-61
2022/10/04 03:07:38;;;;;;;6.43;4.93;;;13.00;99.90;;;;;;5080928;27;20025;-59
2022/10/04 03:10:10;;;;;;;7.13;5.13;;;12.90;99.90;;;;;;5022404;27;20025;-59
2022/10/04 03:12:39;;;;;;;10.10;5.43;;;12.90;99.90;;;;;;5081499;27;20108;-60
2022/10/04 03:15:09;;;;;;;7.32;5.00;;;12.90;99.90;;;;;;5022174;28;20033;-60
2022/10/04 03:17:34;;;;;;;8.68;5.07;;;12.90;99.90;;;;;;5085631;27;20030;-60
2022/10/04 03:20:01;;;;;;;7.50;5.75;;;12.90;99.90;;;;;;5021663;28;20027;-61
2022/10/04 03:22:27;;;;;;;7.78;5.40;;;12.90;99.90;;;;;;5086118;27;20038;-60
2022/10/04 03:24:56;;;;;;;8.95;5.93;;;12.80;99.90;;;;;;5022077;28;20030;-60
2022/10/04 03:27:32;;;;;;;8.40;5.35;;;12.80;99.90;;;;;;5078610;27;20030;-60
2022/10/04 03:29:59;;;;;;;8.75;6.13;;;12.80;99.90;;;;;;5001018;28;20022;-60
2022/10/04 03:32:25;;;;;;;7.97;5.68;;;12.70;99.90;;;;;;5067689;27;20512;-60
2022/10/04 03:34:57;;;;;;;10.27;5.45;;;12.70;99.90;;;;;;5033804;27;20086;-59
2022/10/04 03:37:25;;;;;;;6.10;5.50;;;12.70;99.90;;;;;;5064814;27;20019;-61
2022/10/04 03:39:53;;;;;;;6.93;5.80;;;12.70;99.90;;;;;;5041571;27;20029;-59
2022/10/04 03:42:24;;;;;;;7.40;6.05;;;12.60;99.90;;;;;;5053697;27;20064;-59
2022/10/04 03:44:53;;;;;;;6.00;5.40;;;12.60;99.90;;;;;;5048925;27;20751;-60
2022/10/04 03:47:25;;;;;;;7.28;5.80;;;12.60;99.90;;;;;;5046574;27;20037;-60
2022/10/04 03:49:51;;;;;;;7.43;5.60;;;12.50;99.90;;;;;;5056256;27;20468;-61
2022/10/04 03:52:31;;;;;;;6.40;5.47;;;12.50;99.90;;;;;;5038037;27;20021;-60
2022/10/04 03:55:00;;;;;;;7.60;5.65;;;12.40;99.90;;;;;;5058911;27;20104;-60
2022/10/04 03:57:27;;;;;;;8.07;5.97;;;12.40;99.90;;;;;;5036859;27;20045;-60
2022/10/04 03:59:53;;;;;;;7.97;5.80;;;12.30;99.90;;;;;;5069573;27;20493;-58
2022/10/04 04:02:26;;;;;;;8.35;5.72;;;12.30;99.90;;;;;;5032070;27;20136;-59
2022/10/04 04:05:01;;;;;;;8.95;5.88;;;12.30;99.90;;;;;;5058052;27;20051;-60
2022/10/04 04:07:43;;;;;;;9.52;6.00;;;12.20;99.90;;;;;;5116530;27;20035;-60
2022/10/04 04:10:17;;;;;;;6.78;5.60;;;12.20;99.90;;;;;;5064168;27;20690;-61
2022/10/04 04:13:05;;;;;;;9.80;6.40;;;12.20;99.90;;;;;;5117061;27;20099;-59
2022/10/04 04:15:32;;;;;;;8.75;5.72;;;12.20;99.90;;;;;;5073911;27;20041;-60
2022/10/04 04:18:21;;;;;;;8.55;5.93;;;12.10;99.90;;;;;;5116000;27;20023;-60
2022/10/04 04:20:50;;;;;;;6.53;5.18;;;12.00;99.90;;;;;;5084962;27;20041;-60
2022/10/04 04:23:25;;;;;;;8.80;5.75;;;12.00;99.90;;;;;;5110002;27;20027;-58
2022/10/04 04:25:53;;;;;;;6.78;5.75;;;12.00;99.90;;;;;;5080770;27;20134;-57
2022/10/04 04:28:30;;;;;;;8.40;6.05;;;11.90;99.90;;;;;;5114847;27;20019;-59
2022/10/04 04:31:12;;;;;;;8.18;6.00;;;11.90;99.90;;;;;;5077241;27;20034;-60
2022/10/04 04:33:52;;;;;;;9.55;5.82;;;11.90;99.90;;;;;;5108152;27;20095;-60
2022/10/04 04:36:18;;;;;;;6.85;5.32;;;11.80;99.90;;;;;;5085433;27;20065;-61
2022/10/04 04:41:30;;;;;;;7.32;5.57;;;11.80;99.90;;;;;;5084016;27;20045;-60
2022/10/04 04:43:56;;;;;;;8.68;5.40;;;11.80;99.90;;;;;;5111016;27;20129;-59
2022/10/04 04:46:23;;;;;;;8.77;6.32;;;11.70;99.90;;;;;;5073309;27;20038;-60
2022/10/04 04:49:01;;;;;;;7.68;5.68;;;11.70;99.90;;;;;;5116384;27;20110;-60
2022/10/04 04:51:27;;;;;;;6.88;5.93;;;11.70;99.90;;;;;;5058486;27;20020;-60
2022/10/04 04:53:55;;;;;;;7.68;5.95;;;11.70;99.90;;;;;;5116757;27;20052;-58
2022/10/04 04:56:25;;;;;;;9.07;6.43;;;11.60;99.90;;;;;;5065724;27;20035;-60
2022/10/04 04:58:52;;;;;;;10.73;6.25;;;11.60;99.90;;;;;;5118303;27;20036;-60
2022/10/04 05:01:25;;;;;;;6.95;6.10;;;11.60;99.90;;;;;;5077672;27;20123;-61
2022/10/04 05:04:01;;;;;;;8.52;6.90;;;11.60;99.90;;;;;;5123524;27;20371;-59
2022/10/04 05:06:29;;;;;;;7.93;6.65;;;11.50;99.90;;;;;;5074856;28;20029;-59
2022/10/04 05:08:55;;;;;;;8.23;6.25;;;11.50;99.90;;;;;;5019711;28;20048;-60
2022/10/04 05:11:24;;;;;;;8.07;6.72;;;11.50;99.90;;;;;;5084908;28;21085;-60
2022/10/04 05:13:51;;;;;;;10.50;6.40;;;11.60;99.90;;;;;;5020909;28;20436;-59
2022/10/04 05:16:40;;;;;;;8.05;6.32;;;11.50;99.90;;;;;;5084932;28;20043;-59
2022/10/04 05:19:12;;;;;;;9.63;6.85;;;11.50;99.90;;;;;;5014816;28;20037;-60
2022/10/04 05:21:44;;;;;;;7.45;6.65;;;11.50;99.90;;;;;;5089986;27;20019;-62
2022/10/04 05:24:12;;;;;;;9.40;6.90;;;11.50;99.90;;;;;;5023105;28;20053;-60
2022/10/04 05:26:40;;;;;;;7.63;6.80;;;11.50;99.90;;;;;;5089753;27;20131;-63
2022/10/04 05:29:17;;;;;;;7.93;7.13;;;11.50;99.90;;;;;;5023639;28;20144;-61
2022/10/04 05:32:20;;;;;;;7.95;6.88;;;11.50;99.90;;;;;;5089058;27;20054;-60
2022/10/04 05:34:48;;;;;;;8.30;7.00;;;11.50;99.90;;;;;;5037714;27;20482;-60
2022/10/04 05:37:28;;;;;;;9.02;7.22;;;11.40;99.90;;;;;;5096593;27;20023;-57
2022/10/04 05:40:12;;;;;;;8.23;6.68;;;11.50;99.90;;;;;;5127973;27;20544;-59
2022/10/04 05:42:44;;;;;;;9.68;7.65;;;11.40;99.90;;;;;;5067038;27;20031;-59
2022/10/04 05:45:24;;;;;;;11.18;7.20;;;11.40;99.90;;;;;;5124279;27;20023;-58
2022/10/04 05:47:59;;;;;;;7.93;7.07;;;11.40;99.90;;;;;;5077630;27;20477;-57
2022/10/04 05:50:34;;;;;;;8.27;7.35;;;11.40;99.90;;;;;;5022344;27;20437;-55
2022/10/04 05:53:31;;;;;;;9.38;7.47;;;11.40;99.90;;;;;;5067829;27;20034;-59
2022/10/04 05:56:24;;;;;;;10.45;7.30;;;11.40;99.90;;;;;;5119357;27;20041;-58
2022/10/04 05:59:00;;;;;;;7.93;7.13;;;11.40;99.90;;;;;;5067706;27;20031;-59
2022/10/04 06:01:50;;;;;;;10.45;7.05;;;11.40;99.90;;;;;;5098958;27;20360;-57
2022/10/04 06:04:47;;;;;;;9.45;7.07;;;11.30;99.90;;;;;;5105064;27;20076;-57
2022/10/04 06:07:24;;;;;;;7.57;6.53;;;11.40;99.90;;;;;;5082496;27;20129;-53
2022/10/04 06:10:24;;;;;;;7.90;6.72;;;11.40;99.90;;;;;;5105284;27;20031;-56
2022/10/04 06:13:03;;;;;;;12.13;6.88;;;11.30;99.90;;;;;;5070533;27;20076;-56
2022/10/04 06:15:51;;;;;;;12.13;7.53;;;11.40;99.90;;;;;;5125611;27;20023;-57
2022/10/04 06:18:41;;;;;;;8.40;7.28;;;11.30;99.90;;;;;;5059698;27;20028;-56
2022/10/04 06:21:18;;;;;;;8.70;7.43;;;11.40;99.90;;;;;;5126300;27;20398;-57
2022/10/04 06:23:50;;;;;;;9.45;7.10;;;11.40;99.90;;;;;;5060644;27;20045;-55
2022/10/04 06:26:23;;;;;;;9.05;7.22;;;11.40;99.90;;;;;;5125706;27;20023;-53
2022/10/04 06:28:55;;;;;;;12.07;7.45;;;11.40;99.90;;;;;;5060785;27;20064;-57
2022/10/04 06:31:35;;;;;;;9.27;7.40;;;11.40;99.90;;;;;;5125434;27;20019;-57
2022/10/04 06:34:10;;;;;;;8.95;7.10;;;11.40;99.90;;;;;;5059106;27;20112;-57
2022/10/04 06:36:56;;;;;;;9.68;7.50;;;11.40;99.90;;;;;;5126560;27;20023;-54
2022/10/04 06:40:05;;;;;;;10.32;7.75;;;11.50;99.90;;;;;;5060236;27;20443;-59
2022/10/04 06:43:08;;;;;;;9.07;6.55;;;11.50;99.90;;;;;;5109590;27;20113;-58
2022/10/04 06:45:48;;;;;;;7.93;7.13;;;11.50;99.90;;;;;;5076606;27;20413;-59
2022/10/04 06:48:29;;;;;;;9.40;6.72;;;11.50;99.90;;;;;;5105761;27;20023;-56
2022/10/04 06:51:18;;;;;;;10.35;7.60;;;11.50;99.90;;;;;;5092283;27;20027;-59
2022/10/04 06:54:21;;;;;;;12.20;7.70;;;11.50;99.90;;;;;;5091089;27;20029;-55
2022/10/04 06:57:04;;;;;;;;;;;11.50;99.90;;;;;;5123076;27;20435;-60
2022/10/04 06:59:38;;;;;;;10.30;7.10;;;11.50;99.90;;;;;;5066673;27;19949;-60
2022/10/04 07:02:17;;;;;;;10.73;7.45;;;11.40;99.90;;;;;;5055063;27;20043;-59
2022/10/04 07:04:57;;;;;;;11.35;8.13;;;11.40;99.90;;;;;;5064502;27;20137;-59
2022/10/04 07:07:35;;;;;;;9.80;7.75;;;11.40;99.90;;;;;;5001763;28;20366;-65
2022/10/04 07:10:31;;;;;;;11.13;8.13;;;11.40;99.90;;;;;;5085293;27;20023;-61
2022/10/04 07:13:02;;;;;;;9.25;7.75;;;11.40;99.90;;;;;;5022842;28;20029;-58
2022/10/04 07:15:35;;;;;;;10.65;7.75;;;11.40;99.90;;;;;;5086728;27;20027;-60
2022/10/04 07:18:07;;;;;;;9.20;7.38;;;11.40;99.90;;;;;;5022661;28;20021;-59
2022/10/04 07:20:35;;;;;;;8.50;6.72;;;11.40;99.90;;;;;;5087988;27;20043;-61
2022/10/04 07:23:07;;;;;;;9.40;7.03;;;11.40;99.90;;;;;;5021237;28;20063;-60
2022/10/04 07:25:48;;;;;;;7.30;6.47;;;11.40;99.90;;;;;;5087517;27;20041;-53
2022/10/04 07:31:31;;;;;;;10.60;7.22;;;11.50;99.90;;;;;;5086747;27;20064;-58
2022/10/04 07:34:09;;;;;;;9.10;6.53;;;11.60;99.90;;;;;;5022971;27;20067;-55
2022/10/04 07:37:01;;;;;;;9.48;7.20;;;11.70;99.90;;;;;;5076599;27;20018;-57
2022/10/04 07:39:40;;;;;;;6.68;4.57;;;11.80;99.90;;;;;;5028941;27;20023;-56
2022/10/04 07:42:26;;;;;;;9.13;6.88;;;11.80;99.90;;;;;;5057090;27;20035;-54
2022/10/04 07:45:10;;;;;;;8.15;6.25;;;11.90;99.90;;;;;;5097312;27;20037;-55
2022/10/04 07:47:36;;;;;;;8.18;6.50;;;11.90;99.90;;;;;;5064371;27;20065;-57
2022/10/04 07:50:28;;;;;;;10.23;6.97;;;12.00;99.90;;;;;;5029201;27;20052;-54
2022/10/04 07:53:19;;;;;;;8.52;6.18;;;12.00;99.90;;;;;;5059411;27;20503;-56
2022/10/04 07:55:56;;;;;;;8.25;6.07;;;12.10;99.90;;;;;;5043062;27;20126;-58
2022/10/04 07:58:34;;;;;;;7.07;6.05;;;12.10;99.90;;;;;;5045245;27;20520;-56
2022/10/04 08:01:24;;;;;;;6.82;5.70;;;12.20;99.90;;;;;;5055694;27;20032;-55
2022/10/04 08:03:57;;;;;;;8.52;5.65;;;12.20;99.90;;;;;;5125080;27;20053;-57
2022/10/04 08:06:54;;;;;;;8.30;5.22;;;12.30;99.90;;;;;;5080377;27;20738;-58
2022/10/04 08:09:20;;;;;;;7.15;4.50;;;12.30;99.90;;;;;;5001003;28;20117;-58
2022/10/04 08:12:00;;;;;;;6.03;4.68;;;12.30;99.90;;;;;;5067945;27;20038;-58
2022/10/04 08:14:51;;;;;;;6.00;4.82;;;12.40;99.90;;;;;;5021290;27;20025;-58
2022/10/04 08:17:43;;;;;;;4.93;4.22;;;12.50;99.90;;;;;;5085303;27;20034;-58
2022/10/04 08:20:46;;;;;;;6.53;3.92;;;12.50;99.90;;;;;;5021153;28;20335;-57
2022/10/04 08:23:40;;;;;;;4.55;3.95;;;12.60;99.90;;;;;;5076016;27;20663;-59
2022/10/04 08:26:21;;;;;;;6.45;4.70;;;12.70;99.90;;;;;;5027505;27;21029;-58
2022/10/04 08:32:17;;;;;;;6.85;5.07;;;12.80;99.90;;;;;;5091012;27;20761;-57
2022/10/04 08:35:01;;;;;;;;;;;12.90;99.90;;;;;;5105761;27;20031;-58
2022/10/04 08:37:32;;;;;;;5.50;4.20;;;12.90;99.90;;;;;;5078045;27;19931;-57
2022/10/04 08:40:37;;;;;;;7.78;6.13;;;13.00;99.90;;;;;;5107928;27;20030;-58
2022/10/04 08:43:14;;;;;;;9.40;5.95;;;13.00;99.90;;;;;;5049642;27;20060;-57
2022/10/04 08:45:55;;;;;;;7.93;5.85;;;13.00;99.90;;;;;;5001096;28;20049;-58
2022/10/04 08:48:29;;;;;;;4.90;4.28;;;13.00;99.90;;;;;;5082138;27;20645;-58
2022/10/04 08:51:24;;;;;;;8.23;6.22;;;13.00;99.90;;;;;;5020736;28;20036;-59
2022/10/04 08:54:26;;;;;;;7.55;4.43;;;13.10;99.90;;;;;;5057014;27;20027;-54
2022/10/04 08:57:27;;;;;;;6.38;4.80;;;13.20;99.90;;;;;;5059846;28;20036;-55
2022/10/04 09:00:14;;;;;;;8.95;5.95;;;13.20;99.90;;;;;;5065804;27;20101;-55
2022/10/04 09:02:54;;;;;;;6.53;5.35;;;13.30;99.90;;;;;;5102607;27;20078;-58
2022/10/04 09:05:58;;;;;;;8.65;6.28;;;13.40;99.90;;;;;;5088435;27;20047;-57
2022/10/04 09:09:15;;;;;;;9.00;6.43;;;13.40;99.90;;;;;;5080588;28;20029;-58
2022/10/04 09:12:06;;;;;;;7.22;5.40;;;13.50;99.90;;;;;;5040714;28;20037;-58
2022/10/04 09:15:25;;;;;;;5.63;4.68;;;13.60;99.90;;;;;;5083229;28;20829;-55
2022/10/04 09:18:16;;;;;;;6.63;5.38;;;13.60;99.90;;;;;;4993978;28;20040;-59
2022/10/04 09:20:56;;;;;;;5.95;4.95;;;13.70;99.90;;;;;;5073725;28;20038;-57
2022/10/04 09:23:32;;;;;;;7.95;4.70;;;13.80;99.90;;;;;;5104603;27;20070;-56
2022/10/04 09:26:37;;;;;;;8.27;5.47;;;13.90;99.90;;;;;;5085137;28;20056;-59
2022/10/04 09:29:33;;;;;;;6.63;5.53;;;14.00;99.90;;;;;;5082588;28;20040;-58
2022/10/04 09:32:36;;;;;;;6.22;5.00;;;14.10;99.90;;;;;;5121071;28;20110;-55
2022/10/04 09:35:38;;;;;;;8.95;5.28;;;14.10;99.90;;;;;;5057238;27;20099;-55
2022/10/04 09:38:22;;;;;;;7.50;5.10;;;14.20;99.90;;;;;;5077864;28;20041;-57
2022/10/04 09:40:59;;;;;;;7.00;5.65;;;14.30;99.90;;;;;;5076533;28;20097;-57
2022/10/04 09:43:49;;;;;;;7.25;5.25;;;14.30;99.90;;;;;;5042652;27;20035;-53
2022/10/04 09:46:30;;;;;;;5.70;4.65;;;14.40;99.90;;;;;;5055947;28;20139;-56
2022/10/04 09:49:46;;;;;;;7.60;5.00;;;14.40;99.90;;;;;;5115862;28;20466;-54
2022/10/04 09:52:31;;;;;;;6.82;5.72;;;14.50;99.90;;;;;;5095799;27;20076;-56
2022/10/04 09:55:32;;;;;;;6.85;5.10;;;14.60;99.90;;;;;;5055332;28;20027;-58
2022/10/04 09:58:30;;;;;;;7.00;5.07;;;14.60;99.90;;;;;;5022878;28;20118;-55
2022/10/04 10:01:01;;;;;;;6.93;4.80;;;14.70;99.90;;;;;;5084080;27;20042;-59
2022/10/04 10:03:27;;;;;;;9.30;5.35;;;14.80;99.90;;;;;;5111947;28;20047;-59
2022/10/04 10:06:11;;;;;;;8.00;5.15;;;14.90;99.90;;;;;;5060745;27;20033;-57
2022/10/04 10:09:13;;;;;;;8.45;6.18;;;14.90;99.90;;;;;;5127397;27;20135;-57
2022/10/04 10:14:54;;;;;;;6.10;4.18;;;15.00;99.90;;;;;;5028844;27;20121;-56
2022/10/04 10:17:39;;;;;;;6.68;4.68;;;15.10;99.90;;;;;;5022523;27;20030;-58
2022/10/04 10:20:22;;;;;;;7.70;4.20;;;15.10;99.90;;;;;;5033865;27;20025;-59
2022/10/04 10:23:04;;;;;;;6.85;4.35;;;15.20;99.90;;;;;;5064963;27;20073;-54
2022/10/04 10:26:04;;;;;;;8.10;4.82;;;15.30;99.90;;;;;;5042997;27;20045;-57
2022/10/04 10:28:41;;;;;;;10.52;4.80;;;15.40;99.90;;;;;;5040386;27;20472;-58
2022/10/04 10:31:19;;;;;;;7.25;4.60;;;15.40;99.90;;;;;;5062713;27;20047;-53
2022/10/04 10:34:00;;;;;;;4.80;4.15;;;15.50;99.90;;;;;;5037627;27;20034;-58
2022/10/04 10:36:51;;;;;;;5.03;3.65;;;15.50;99.90;;;;;;5068492;27;20034;-59
2022/10/04 10:39:34;;;;;;;6.50;4.35;;;15.60;99.90;;;;;;5009299;28;20030;-58
2022/10/04 10:42:19;;;;;;;6.00;4.40;;;15.60;99.90;;;;;;5083120;27;20042;-57
2022/10/04 10:45:13;;;;;;;8.23;5.30;;;15.70;99.90;;;;;;5003001;28;20041;-55
2022/10/04 10:48:00;;;;;;;5.95;4.22;;;15.70;99.90;;;;;;5086133;27;20029;-57
2022/10/04 10:50:57;;;;;;;4.55;3.65;;;15.80;99.90;;;;;;5022945;28;20029;-58
2022/10/04 10:54:04;;;;;;;4.30;3.63;;;15.80;99.90;;;;;;5079570;27;20056;-58
2022/10/04 10:56:49;;;;;;;5.80;4.07;;;15.90;99.90;;;;;;5041721;27;20449;-59
2022/10/04 10:59:41;;;;;;;6.57;3.60;;;16.00;99.90;;;;;;5053229;27;20469;-57
2022/10/04 11:02:35;;;;;;;8.70;4.78;;;16.00;99.90;;;;;;5031389;27;20596;-57
2022/10/04 11:05:22;;;;;;;5.65;4.22;;;16.10;99.90;;;;;;5022235;28;20495;-57
2022/10/04 11:08:14;;;;;;;5.90;3.70;;;16.10;99.90;;;;;;5063082;27;20586;-58
2022/10/04 11:11:04;;;;;;;5.33;3.67;;;16.10;99.90;;;;;;5002701;28;20032;-57
2022/10/04 11:13:41;;;;;;;3.92;3.20;;;16.20;99.90;;;;;;5084631;27;20483;-58
2022/10/04 11:16:43;;;;;;;7.40;4.15;;;16.20;99.90;;;;;;5021781;28;20191;-58
2022/10/04 11:19:38;;;;;;;6.13;4.18;;;16.30;99.90;;;;;;5078214;27;20418;-57
2022/10/04 11:22:12;;;;;;;5.68;4.38;;;16.40;99.90;;;;;;5028432;27;20038;-53
2022/10/04 11:25:10;;;;;;;7.97;4.40;;;16.40;99.90;;;;;;5064656;27;20787;-57
2022/10/04 11:28:01;;;;;;;7.65;4.90;;;16.50;99.90;;;;;;5102198;27;20079;-59
2022/10/04 11:30:51;;;;;;;6.45;3.70;;;16.50;99.90;;;;;;5066533;27;20385;-59
2022/10/04 11:33:31;;;;;;;5.13;3.65;;;16.60;99.90;;;;;;5072950;27;20023;-55
2022/10/04 11:36:36;;;;;;;6.03;3.80;;;16.60;99.90;;;;;;5031341;27;20021;-59
2022/10/04 11:39:21;;;;;;;5.55;3.80;;;16.60;99.90;;;;;;5086791;27;20035;-55
2022/10/04 11:42:16;;;;;;;6.30;3.88;;;16.60;99.90;;;;;;5020770;28;20141;-57
2022/10/04 11:45:12;;;;;;;5.18;3.75;;;16.70;99.90;;;;;;5066433;27;20012;-53
2022/10/04 11:47:54;;;;;;;4.63;3.38;;;16.70;99.90;;;;;;5118870;27;20029;-55
2022/10/04 11:50:27;;;;;;;6.63;4.25;;;16.70;99.90;;;;;;5065981;27;20103;-57
2022/10/04 11:53:15;;;;;;;6.55;4.30;;;16.80;99.90;;;;;;5118343;27;20061;-54
2022/10/04 11:56:02;;;;;;;7.32;3.70;;;16.80;99.90;;;;;;5002203;28;20035;-53
2022/10/04 11:58:47;;;;;;;8.05;3.78;;;16.90;99.90;;;;;;5024267;27;20066;-58
2022/10/04 12:01:29;;;;;;;5.00;2.92;;;17.00;99.90;;;;;;5055948;27;20049;-54
2022/10/04 12:04:42;;;;;;;4.47;3.10;;;17.10;99.90;;;;;;5036649;27;20035;-52
2022/10/04 12:07:36;;;;;;;5.32;2.85;;;17.00;99.90;;;;;;5042314;28;20032;-57
2022/10/04 12:10:38;;;;;;;5.47;3.38;;;17.10;99.90;;;;;;5086264;27;20031;-57
2022/10/04 12:13:31;;;;;;;2.80;2.58;;;17.20;99.90;;;;;;5021064;28;20108;-58
2022/10/04 12:16:31;;;;;;;3.67;2.70;;;17.20;99.90;;;;;;5076969;27;20036;-58
2022/10/04 12:19:21;;;;;;;5.28;3.20;;;17.30;99.90;;;;;;5027389;27;20601;-58
2022/10/04 12:22:06;;;;;;;6.28;3.85;;;17.30;99.90;;;;;;5076139;27;20584;-56
2022/10/04 12:25:11;;;;;;;4.22;3.45;;;17.40;99.90;;;;;;5100072;27;20030;-58
2022/10/04 12:28:10;;;;;;;5.10;3.30;;;17.50;99.90;;;;;;5012263;28;20523;-56
2022/10/04 12:31:15;;;;;;;4.40;2.85;;;17.60;99.90;;;;;;5047869;27;20125;-58
2022/10/04 12:33:43;;;;;;;3.95;3.03;;;17.70;99.90;;;;;;5021635;28;20037;-55
2022/10/04 12:36:23;;;;;;;4.18;2.70;;;17.80;99.90;;;;;;5085772;27;20027;-59
2022/10/04 12:39:19;;;;;;;3.90;2.65;;;17.80;99.90;;;;;;5020387;28;20025;-58
2022/10/04 12:42:15;;;;;;;4.55;2.70;;;17.90;99.90;;;;;;5076069;27;20025;-57
2022/10/04 12:45:13;;;;;;;3.85;3.03;;;17.90;99.90;;;;;;5028171;27;20117;-58
2022/10/04 12:48:09;;;;;;;6.63;3.17;;;18.00;99.90;;;;;;5076186;27;20031;-57
2022/10/04 12:50:52;;;;;;;7.50;3.33;;;18.00;99.90;;;;;;5090335;27;20113;-59
2022/10/04 12:53:20;;;;;;;3.97;3.42;;;18.10;99.90;;;;;;5102509;27;20110;-59
2022/10/04 12:56:03;;;;;;;3.53;2.80;;;18.20;99.90;;;;;;5092324;27;20032;-58
2022/10/04 12:58:31;;;;;;;;;;;18.20;99.90;;;;;;5104467;27;20083;-58
2022/10/04 13:01:11;;;;;;;4.38;3.22;;;18.20;99.90;;;;;;5089860;27;19967;-55
2022/10/04 13:04:02;;;;;;;4.20;2.67;;;18.30;99.90;;;;;;5024048;28;20124;-59
2022/10/04 13:06:34;;;;;;;4.28;3.42;;;18.30;99.90;;;;;;5066514;27;20027;-57
2022/10/04 13:09:18;;;;;;;6.22;3.63;;;18.40;99.90;;;;;;5034590;27;20030;-57
2022/10/04 13:11:59;;;;;;;6.35;3.28;;;18.40;99.90;;;;;;5072432;27;20080;-55
2022/10/04 13:14:48;;;;;;;5.95;3.45;;;18.50;99.90;;;;;;5021130;28;20037;-54
2022/10/04 13:17:38;;;;;;;5.35;2.78;;;18.50;99.90;;;;;;5084651;28;20038;-56
2022/10/04 13:20:46;;;;;;;3.67;2.30;;;18.50;99.90;;;;;;5020604;28;20021;-57
2022/10/04 13:23:26;;;;;;;3.67;2.05;;;18.50;99.90;;;;;;4986700;28;20038;-58
2022/10/04 13:26:16;;;;;;;3.50;2.10;;;18.40;99.90;;;;;;4977796;28;20062;-57
2022/10/04 13:28:50;;;;;;;4.47;2.60;;;18.40;99.90;;;;;;5046382;28;20158;-57
2022/10/04 13:31:31;;;;;;;3.13;2.22;;;18.40;99.90;;;;;;5116242;28;20025;-55
2022/10/04 13:34:27;;;;;;;4.63;2.40;;;18.40;99.90;;;;;;5062526;28;20027;-58
2022/10/04 13:37:08;;;;;;;6.00;2.55;;;18.40;99.90;;;;;;5102510;27;20439;-54
2022/10/04 13:39:43;;;;;;;3.65;2.35;;;18.40;99.90;;;;;;5092739;27;20139;-56
2022/10/04 13:42:29;;;;;;;3.40;2.22;;;18.40;99.90;;;;;;5101249;27;20051;-54
2022/10/04 13:45:17;;;;;;;3.10;2.00;;;18.40;99.90;;;;;;5102072;27;20055;-55
2022/10/04 13:48:11;;;;;;;3.33;2.20;;;18.50;99.90;;;;;;5086101;27;20384;-55
2022/10/04 13:51:06;;;;;;;4.20;2.20;;;18.60;99.90;;;;;;5124904;27;20027;-53
2022/10/04 13:56:57;;;;;;;4.32;2.65;;;18.60;99.60;;;;;;5121836;27;20141;-56
2022/10/04 14:00:00;;;;;;;7.60;3.00;;;18.70;99.00;;;;;;5078633;27;20089;-59
2022/10/04 14:02:29;;;;;;;;;;;18.80;99.10;;;;;;5032963;27;20053;-56
2022/10/04 14:04:57;;;;;;;3.90;2.72;;;18.80;99.10;;;;;;5078100;27;20435;-57
2022/10/04 14:07:49;;;;;;;3.88;2.60;;;18.80;99.20;;;;;;5029946;27;20027;-56
2022/10/04 14:10:36;;;;;;;4.18;2.85;;;18.80;99.00;;;;;;5068796;27;20028;-58
2022/10/04 14:13:17;;;;;;;3.95;2.30;;;18.80;99.20;;;;;;5105865;27;20041;-52
2022/10/04 14:15:52;;;;;;;3.63;2.53;;;18.80;99.00;;;;;;5056377;27;20030;-53
2022/10/04 14:18:44;;;;;;;3.90;2.13;;;18.80;99.10;;;;;;5043873;27;20189;-57